createdAt,value
2024-02-26T00:00:00.827Z,43.7
2024-02-26T00:01:00.732Z,43.8
2024-02-26T00:02:00.727Z,43.9
2024-02-26T00:03:00.767Z,44.0
2024-02-26T00:04:00.804Z,44.0
2024-02-26T00:05:00.833Z,43.9
2024-02-26T00:06:00.896Z,43.9
2024-02-26T00:07:00.824Z,44.0
2024-02-26T00:08:03.641Z,44.0
2024-02-26T00:09:00.813Z,43.9
2024-02-26T00:10:00.760Z,43.6
2024-02-26T00:11:00.881Z,43.4
2024-02-26T00:12:00.860Z,43.4
2024-02-26T00:13:00.714Z,43.5
2024-02-26T00:14:00.779Z,43.7
2024-02-26T00:15:00.812Z,43.7
2024-02-26T00:16:00.704Z,43.7
2024-02-26T00:17:00.839Z,43.6
2024-02-26T00:18:00.931Z,43.7
2024-02-26T00:19:00.844Z,43.8
2024-02-26T00:20:00.862Z,43.9
2024-02-26T00:21:00.816Z,43.9
2024-02-26T00:22:00.698Z,44.1
2024-02-26T00:23:00.744Z,44.2
2024-02-26T00:24:00.745Z,44.2
2024-02-26T00:25:00.703Z,44.3
2024-02-26T00:26:00.713Z,44.5
2024-02-26T00:27:00.767Z,44.5
2024-02-26T00:28:00.703Z,44.6
2024-02-26T00:29:00.799Z,44.5
2024-02-26T00:30:00.848Z,44.6
2024-02-26T00:31:00.697Z,44.5
2024-02-26T00:32:00.713Z,44.4
2024-02-26T00:33:00.902Z,44.5
2024-02-26T00:34:00.965Z,44.5
2024-02-26T00:35:00.848Z,44.5
2024-02-26T00:36:00.742Z,44.7
2024-02-26T00:37:00.717Z,44.5
2024-02-26T00:38:00.716Z,44.4
2024-02-26T00:39:00.719Z,44.5
2024-02-26T00:40:00.711Z,44.8
2024-02-26T00:41:00.933Z,44.8
2024-02-26T00:42:00.748Z,44.7
2024-02-26T00:43:00.688Z,44.7
2024-02-26T00:44:00.717Z,44.5
2024-02-26T00:45:00.844Z,44.5
2024-02-26T00:46:00.712Z,44.4
2024-02-26T00:47:00.845Z,44.5
2024-02-26T00:48:00.746Z,44.4
2024-02-26T00:49:00.847Z,44.4
2024-02-26T00:50:00.850Z,44.4
2024-02-26T00:51:00.741Z,44.5
2024-02-26T00:52:00.715Z,44.6
2024-02-26T00:53:00.855Z,44.5
2024-02-26T00:54:00.815Z,44.6
2024-02-26T00:55:00.719Z,44.8
2024-02-26T00:56:00.788Z,44.8
2024-02-26T00:57:00.748Z,44.7
2024-02-26T00:58:00.792Z,44.6
2024-02-26T00:59:00.838Z,44.6
2024-02-26T01:00:00.937Z,44.5
2024-02-26T01:01:00.764Z,44.6
2024-02-26T01:02:00.791Z,44.5
2024-02-26T01:03:00.837Z,44.5
2024-02-26T01:04:00.934Z,44.6
2024-02-26T01:05:00.777Z,44.5
2024-02-26T01:06:00.871Z,44.6
2024-02-26T01:07:00.812Z,44.6
2024-02-26T01:08:00.858Z,44.6
2024-02-26T01:09:00.811Z,44.7
2024-02-26T01:10:00.734Z,44.7
2024-02-26T01:11:00.740Z,44.8
2024-02-26T01:12:00.762Z,44.7
2024-02-26T01:13:00.769Z,44.7
2024-02-26T01:14:00.692Z,44.6
2024-02-26T01:15:00.810Z,44.6
2024-02-26T01:16:00.771Z,44.4
2024-02-26T01:17:00.732Z,44.5
2024-02-26T01:18:00.766Z,44.5
2024-02-26T01:19:00.968Z,44.6
2024-02-26T01:20:00.818Z,44.6
2024-02-26T01:21:00.779Z,44.6
2024-02-26T01:22:00.693Z,44.8
2024-02-26T01:23:00.692Z,44.9
2024-02-26T01:24:00.817Z,45.0
2024-02-26T01:25:00.703Z,45.2
2024-02-26T01:26:00.779Z,45.3
2024-02-26T01:27:00.822Z,45.3
2024-02-26T01:28:00.685Z,45.3
2024-02-26T01:29:00.690Z,45.4
2024-02-26T01:30:00.784Z,45.5
2024-02-26T01:31:00.691Z,45.5
2024-02-26T01:32:00.779Z,45.5
2024-02-26T01:33:00.861Z,45.4
2024-02-26T01:34:00.839Z,45.4
2024-02-26T01:35:00.734Z,45.3
2024-02-26T01:36:00.717Z,45.3
2024-02-26T01:37:00.750Z,45.3
2024-02-26T01:38:00.755Z,45.3
2024-02-26T01:39:00.859Z,45.2
2024-02-26T01:40:00.792Z,45.4
2024-02-26T01:41:00.763Z,45.3
2024-02-26T01:42:00.779Z,45.3
2024-02-26T01:43:00.836Z,45.3
2024-02-26T01:44:00.818Z,45.3
2024-02-26T01:45:00.824Z,45.2
2024-02-26T01:46:00.689Z,45.3
2024-02-26T01:47:00.766Z,45.3
2024-02-26T01:48:00.854Z,45.3
2024-02-26T01:49:00.882Z,45.4
2024-02-26T01:50:00.767Z,45.4
2024-02-26T01:51:00.766Z,45.4
2024-02-26T01:52:00.695Z,45.3
2024-02-26T01:53:00.767Z,45.3
2024-02-26T01:54:00.789Z,45.3
2024-02-26T01:55:00.717Z,45.3
2024-02-26T01:56:00.813Z,45.4
2024-02-26T01:57:00.740Z,45.4
2024-02-26T01:58:00.733Z,45.4
2024-02-26T01:59:00.693Z,45.4
2024-02-26T02:00:00.746Z,45.4
2024-02-26T02:01:00.723Z,45.4
2024-02-26T02:02:00.756Z,45.4
2024-02-26T02:03:00.762Z,45.5
2024-02-26T02:04:00.764Z,45.4
2024-02-26T02:05:00.716Z,45.4
2024-02-26T02:06:00.925Z,45.4
2024-02-26T02:07:00.766Z,45.4
2024-02-26T02:08:00.719Z,45.4
2024-02-26T02:09:00.719Z,45.4
2024-02-26T02:10:00.776Z,45.4
2024-02-26T02:11:00.766Z,45.5
2024-02-26T02:12:00.771Z,45.5
2024-02-26T02:13:00.706Z,45.5
2024-02-26T02:14:00.716Z,45.7
2024-02-26T02:15:00.783Z,45.7
2024-02-26T02:16:00.740Z,45.6
2024-02-26T02:17:00.758Z,45.6
2024-02-26T02:18:00.865Z,45.5
2024-02-26T02:19:00.710Z,45.5
2024-02-26T02:20:00.805Z,45.4
2024-02-26T02:21:00.886Z,45.5
2024-02-26T02:22:00.798Z,45.8
2024-02-26T02:23:00.786Z,46.0
2024-02-26T02:24:00.782Z,45.7
2024-02-26T02:25:00.804Z,45.7
2024-02-26T02:26:00.717Z,45.8
2024-02-26T02:27:00.734Z,45.8
2024-02-26T02:28:00.793Z,45.9
2024-02-26T02:29:00.695Z,45.8
2024-02-26T02:30:00.838Z,46.0
2024-02-26T02:31:00.707Z,45.7
2024-02-26T02:32:00.692Z,45.7
2024-02-26T02:33:00.882Z,45.7
2024-02-26T02:34:00.901Z,45.7
2024-02-26T02:35:00.818Z,45.7
2024-02-26T02:36:00.800Z,45.8
2024-02-26T02:37:00.694Z,45.7
2024-02-26T02:38:00.725Z,46.0
2024-02-26T02:39:00.789Z,46.0
2024-02-26T02:40:00.804Z,46.1
2024-02-26T02:41:00.707Z,46.0
2024-02-26T02:42:00.736Z,46.1
2024-02-26T02:43:00.688Z,46.2
2024-02-26T02:44:00.718Z,46.2
2024-02-26T02:45:00.885Z,46.2
2024-02-26T02:46:00.890Z,46.3
2024-02-26T02:47:00.710Z,46.2
2024-02-26T02:48:00.834Z,46.1
2024-02-26T02:49:00.922Z,46.0
2024-02-26T02:50:00.704Z,45.8
2024-02-26T02:51:00.772Z,45.8
2024-02-26T02:52:00.860Z,45.7
2024-02-26T02:53:00.712Z,45.8
2024-02-26T02:54:00.729Z,45.8
2024-02-26T02:55:00.793Z,45.8
2024-02-26T02:56:00.757Z,45.9
2024-02-26T02:57:00.832Z,45.9
2024-02-26T02:58:00.784Z,46.1
2024-02-26T02:59:00.785Z,46.0
2024-02-26T03:00:00.917Z,46.0
2024-02-26T03:01:00.774Z,46.1
2024-02-26T03:02:00.771Z,46.1
2024-02-26T03:03:00.758Z,46.3
2024-02-26T03:04:00.862Z,46.4
2024-02-26T03:05:00.770Z,46.4
2024-02-26T03:06:00.754Z,46.5
2024-02-26T03:07:00.779Z,46.4
2024-02-26T03:08:00.725Z,46.3
2024-02-26T03:09:00.737Z,46.3
2024-02-26T03:10:00.766Z,46.3
2024-02-26T03:11:00.790Z,46.2
2024-02-26T03:12:00.777Z,46.0
2024-02-26T03:13:00.712Z,46.0
2024-02-26T03:14:00.723Z,46.0
2024-02-26T03:15:00.717Z,46.1
2024-02-26T03:16:00.805Z,46.1
2024-02-26T03:17:00.710Z,46.1
2024-02-26T03:18:00.847Z,46.4
2024-02-26T03:19:00.831Z,46.3
2024-02-26T03:20:00.689Z,46.4
2024-02-26T03:21:00.719Z,46.6
2024-02-26T03:22:00.695Z,46.8
2024-02-26T03:23:00.775Z,47.0
2024-02-26T03:24:00.747Z,47.0
2024-02-26T03:25:00.772Z,47.1
2024-02-26T03:26:00.686Z,47.1
2024-02-26T03:27:00.718Z,46.9
2024-02-26T03:28:00.708Z,46.9
2024-02-26T03:29:00.745Z,46.8
2024-02-26T03:30:01.004Z,46.5
2024-02-26T03:31:00.688Z,46.5
2024-02-26T03:32:00.771Z,46.5
2024-02-26T03:33:00.832Z,46.4
2024-02-26T03:34:00.855Z,46.4
2024-02-26T03:35:00.714Z,46.2
2024-02-26T03:36:00.812Z,46.0
2024-02-26T03:37:00.719Z,45.8
2024-02-26T03:38:00.794Z,45.8
2024-02-26T03:39:00.755Z,46.0
2024-02-26T03:40:00.775Z,45.7
2024-02-26T03:41:00.706Z,45.6
2024-02-26T03:42:00.736Z,45.5
2024-02-26T03:43:00.754Z,45.6
2024-02-26T03:44:00.840Z,45.5
2024-02-26T03:45:00.755Z,45.3
2024-02-26T03:46:00.709Z,45.3
2024-02-26T03:47:00.694Z,45.3
2024-02-26T03:48:00.846Z,45.4
2024-02-26T03:49:00.779Z,45.3
2024-02-26T03:50:00.778Z,45.3
2024-02-26T03:51:00.795Z,45.3
2024-02-26T03:52:00.752Z,45.2
2024-02-26T03:53:00.712Z,45.4
2024-02-26T03:54:00.741Z,45.6
2024-02-26T03:55:00.692Z,45.2
2024-02-26T03:56:00.829Z,45.1
2024-02-26T03:57:00.719Z,45.1
2024-02-26T03:58:00.723Z,45.0
2024-02-26T03:59:00.732Z,44.9
2024-02-26T04:00:00.784Z,44.9
2024-02-26T04:01:00.757Z,44.8
2024-02-26T04:02:00.770Z,44.8
2024-02-26T04:03:00.774Z,44.7
2024-02-26T04:04:00.784Z,44.7
2024-02-26T04:05:00.932Z,44.7
2024-02-26T04:06:00.763Z,44.8
2024-02-26T04:07:00.918Z,44.9
2024-02-26T04:08:00.713Z,44.8
2024-02-26T04:09:00.742Z,44.6
2024-02-26T04:10:03.276Z,44.7
2024-02-26T04:11:00.742Z,44.7
2024-02-26T04:12:00.765Z,44.6
2024-02-26T04:13:00.695Z,44.6
2024-02-26T04:14:00.707Z,44.6
2024-02-26T04:15:00.758Z,44.8
2024-02-26T04:16:00.793Z,44.9
2024-02-26T04:17:00.709Z,45.4
2024-02-26T04:18:00.825Z,45.0
2024-02-26T04:19:00.895Z,44.9
2024-02-26T04:20:00.692Z,44.9
2024-02-26T04:21:00.795Z,44.8
2024-02-26T04:22:00.831Z,44.7
2024-02-26T04:23:00.688Z,44.6
2024-02-26T04:24:00.777Z,44.7
2024-02-26T04:25:00.823Z,44.6
2024-02-26T04:26:00.739Z,44.7
2024-02-26T04:27:00.754Z,44.6
2024-02-26T04:28:00.712Z,44.4
2024-02-26T04:29:00.730Z,44.2
2024-02-26T04:30:00.775Z,44.2
2024-02-26T04:31:00.693Z,44.2
2024-02-26T04:32:00.743Z,44.1
2024-02-26T04:33:00.857Z,44.1
2024-02-26T04:34:00.997Z,43.9
2024-02-26T04:35:00.806Z,43.8
2024-02-26T04:36:00.828Z,43.9
2024-02-26T04:37:00.752Z,43.9
2024-02-26T04:38:00.704Z,44.0
2024-02-26T04:39:00.777Z,44.3
2024-02-26T04:40:00.773Z,44.7
2024-02-26T04:41:00.724Z,44.9
2024-02-26T04:42:00.743Z,45.0
2024-02-26T04:43:00.726Z,45.1
2024-02-26T04:44:00.786Z,45.3
2024-02-26T04:45:00.921Z,45.3
2024-02-26T04:46:00.705Z,45.5
2024-02-26T04:47:00.721Z,45.7
2024-02-26T04:48:00.881Z,45.9
2024-02-26T04:49:00.818Z,46.1
2024-02-26T04:50:00.781Z,46.5
2024-02-26T04:51:00.936Z,46.6
2024-02-26T04:52:00.703Z,46.8
2024-02-26T04:53:00.710Z,47.1
2024-02-26T04:54:00.819Z,47.3
2024-02-26T04:55:00.712Z,47.8
2024-02-26T04:56:00.703Z,48.0
2024-02-26T04:57:00.984Z,48.0
2024-02-26T04:58:00.701Z,47.9
2024-02-26T04:59:00.704Z,47.6
2024-02-26T05:00:00.837Z,47.6
2024-02-26T05:01:00.729Z,47.4
2024-02-26T05:02:00.749Z,47.1
2024-02-26T05:03:00.779Z,46.9
2024-02-26T05:04:00.878Z,46.9
2024-02-26T05:05:00.808Z,47.0
2024-02-26T05:06:00.878Z,46.9
2024-02-26T05:07:00.955Z,46.7
2024-02-26T05:08:00.774Z,46.5
2024-02-26T05:09:00.811Z,46.4
2024-02-26T05:10:00.709Z,45.9
2024-02-26T05:11:00.736Z,45.2
2024-02-26T05:12:00.796Z,44.9
2024-02-26T05:13:00.703Z,44.7
2024-02-26T05:14:00.757Z,44.6
2024-02-26T05:15:00.828Z,44.7
2024-02-26T05:16:00.777Z,44.4
2024-02-26T05:17:00.709Z,43.7
2024-02-26T05:18:00.799Z,42.6
2024-02-26T05:19:01.058Z,39.0
2024-02-26T05:20:00.810Z,34.0
2024-02-26T05:21:00.714Z,31.3
2024-02-26T05:22:00.733Z,27.1
2024-02-26T05:23:00.715Z,23.2
2024-02-26T05:24:00.731Z,21.8
2024-02-26T05:25:00.800Z,20.9
2024-02-26T05:26:00.792Z,20.2
2024-02-26T05:27:00.755Z,18.1
2024-02-26T05:28:00.815Z,17.1
2024-02-26T05:29:01.023Z,17.8
2024-02-26T05:30:00.740Z,16.2
2024-02-26T05:31:00.721Z,14.9
2024-02-26T05:32:00.705Z,15.2
2024-02-26T05:33:00.845Z,13.8
2024-02-26T05:34:01.000Z,13.6
2024-02-26T05:35:00.767Z,12.8
2024-02-26T05:36:00.781Z,12.1
2024-02-26T05:37:00.721Z,11.7
2024-02-26T05:38:00.777Z,11.5
2024-02-26T05:39:00.725Z,11.6
2024-02-26T05:40:00.732Z,11.3
2024-02-26T05:41:00.736Z,10.7
2024-02-26T05:42:00.740Z,11.1
2024-02-26T05:43:00.745Z,9.7
2024-02-26T05:44:00.778Z,9.0
2024-02-26T05:45:00.749Z,8.9
2024-02-26T05:46:00.815Z,10.0
2024-02-26T05:47:00.701Z,9.2
2024-02-26T05:48:00.897Z,9.5
2024-02-26T05:49:00.864Z,9.5
2024-02-26T05:50:00.946Z,10.4
2024-02-26T05:51:00.715Z,9.6
2024-02-26T05:52:00.716Z,9.4
2024-02-26T05:53:00.695Z,9.2
2024-02-26T05:54:00.720Z,9.5
2024-02-26T05:55:00.692Z,9.3
2024-02-26T05:56:00.769Z,9.8
2024-02-26T05:57:00.752Z,9.4
2024-02-26T05:58:00.733Z,9.1
2024-02-26T05:59:00.705Z,8.9
2024-02-26T06:00:00.743Z,8.4
2024-02-26T06:01:00.810Z,8.7
2024-02-26T06:02:00.814Z,8.4
2024-02-26T06:03:00.734Z,8.5
2024-02-26T06:04:00.782Z,8.3
2024-02-26T06:05:00.694Z,8.0
2024-02-26T06:06:00.801Z,7.8
2024-02-26T06:07:00.736Z,7.8
2024-02-26T06:08:00.790Z,8.2
2024-02-26T06:09:00.757Z,8.3
2024-02-26T06:10:00.756Z,7.9
2024-02-26T06:11:00.724Z,8.1
2024-02-26T06:12:00.750Z,7.7
2024-02-26T06:13:00.694Z,7.8
2024-02-26T06:14:03.982Z,8.0
2024-02-26T06:15:00.749Z,7.3
2024-02-26T06:16:00.774Z,7.9
2024-02-26T06:17:00.734Z,7.6
2024-02-26T06:18:00.773Z,7.9
2024-02-26T06:19:00.884Z,8.1
2024-02-26T06:20:01.184Z,8.3
2024-02-26T06:21:00.829Z,8.3
2024-02-26T06:22:00.795Z,8.3
2024-02-26T06:23:00.704Z,8.3
2024-02-26T06:24:00.790Z,8.1
2024-02-26T06:25:00.717Z,8.2
2024-02-26T06:26:00.696Z,8.6
2024-02-26T06:27:00.775Z,8.5
2024-02-26T06:28:00.839Z,8.4
2024-02-26T06:29:00.724Z,8.0
2024-02-26T06:30:00.825Z,8.4
2024-02-26T06:31:00.777Z,8.2
2024-02-26T06:32:00.881Z,8.0
2024-02-26T06:33:00.986Z,7.1
2024-02-26T06:34:01.070Z,6.6
2024-02-26T06:35:00.884Z,6.3
2024-02-26T06:36:00.784Z,6.4
2024-02-26T06:37:00.741Z,6.4
2024-02-26T06:38:00.752Z,6.1
2024-02-26T06:39:00.767Z,6.2
2024-02-26T06:40:00.685Z,6.2
2024-02-26T06:41:00.718Z,6.0
2024-02-26T06:42:00.714Z,6.6
2024-02-26T06:43:00.808Z,6.6
2024-02-26T06:44:00.708Z,6.6
2024-02-26T06:45:00.913Z,6.8
2024-02-26T06:46:00.697Z,6.9
2024-02-26T06:47:00.726Z,7.2
2024-02-26T06:48:00.816Z,7.3
2024-02-26T06:49:00.977Z,7.1
2024-02-26T06:50:00.825Z,7.3
2024-02-26T06:51:00.723Z,7.4
2024-02-26T06:52:00.704Z,7.4
2024-02-26T06:53:00.714Z,7.4
2024-02-26T06:54:00.715Z,7.1
2024-02-26T06:55:00.831Z,6.9
2024-02-26T06:56:00.709Z,6.8
2024-02-26T06:57:00.917Z,6.7
2024-02-26T06:58:00.688Z,7.0
2024-02-26T06:59:00.734Z,6.4
2024-02-26T07:00:01.029Z,6.6
2024-02-26T07:01:00.768Z,6.6
2024-02-26T07:02:01.303Z,6.9
2024-02-26T07:03:00.937Z,6.5
2024-02-26T07:04:00.744Z,6.4
2024-02-26T07:05:00.757Z,6.3
2024-02-26T07:06:00.792Z,6.6
2024-02-26T07:07:00.903Z,6.4
2024-02-26T07:08:00.704Z,6.3
2024-02-26T07:09:00.781Z,6.7
2024-02-26T07:10:00.796Z,7.0
2024-02-26T07:11:00.748Z,6.6
2024-02-26T07:12:01.805Z,6.5
2024-02-26T07:13:00.695Z,6.7
2024-02-26T07:14:00.742Z,6.8
2024-02-26T07:15:00.889Z,6.6
2024-02-26T07:16:00.783Z,6.6
2024-02-26T07:17:00.768Z,6.5
2024-02-26T07:18:00.845Z,6.1
2024-02-26T07:19:00.824Z,6.3
2024-02-26T07:20:00.695Z,6.5
2024-02-26T07:21:00.772Z,6.5
2024-02-26T07:22:00.854Z,6.7
2024-02-26T07:23:00.706Z,6.7
2024-02-26T07:24:00.740Z,6.7
2024-02-26T07:25:00.772Z,6.7
2024-02-26T07:26:00.693Z,6.5
2024-02-26T07:27:00.723Z,6.8
2024-02-26T07:28:00.687Z,6.7
2024-02-26T07:29:00.686Z,6.9
2024-02-26T07:30:00.891Z,6.5
2024-02-26T07:31:00.781Z,6.3
2024-02-26T07:32:00.782Z,6.6
2024-02-26T07:33:00.811Z,7.1
2024-02-26T07:35:00.917Z,7.4
2024-02-26T07:36:00.749Z,7.1
2024-02-26T07:37:00.691Z,6.8
2024-02-26T07:38:00.694Z,6.5
2024-02-26T07:39:00.731Z,6.5
2024-02-26T07:41:03.508Z,7.1
2024-02-26T07:42:00.797Z,6.5
2024-02-26T07:43:00.784Z,6.8
2024-02-26T07:44:00.698Z,7.1
2024-02-26T07:45:00.784Z,7.3
2024-02-26T07:46:00.732Z,7.7
2024-02-26T07:47:00.766Z,7.6
2024-02-26T07:48:00.853Z,7.6
2024-02-26T07:49:00.784Z,7.3
2024-02-26T07:50:00.766Z,7.5
2024-02-26T07:51:00.860Z,7.4
2024-02-26T07:52:00.695Z,7.7
2024-02-26T07:53:00.791Z,7.5
2024-02-26T07:54:00.766Z,7.2
2024-02-26T07:55:00.748Z,7.1
2024-02-26T07:56:00.710Z,6.8
2024-02-26T07:57:00.774Z,6.6
2024-02-26T07:58:00.712Z,6.6
2024-02-26T07:59:00.859Z,6.6
2024-02-26T08:00:00.910Z,7.2
2024-02-26T08:01:00.848Z,7.4
2024-02-26T08:02:00.850Z,7.4
2024-02-26T08:03:00.956Z,7.3
2024-02-26T08:04:00.925Z,6.9
2024-02-26T08:05:00.811Z,6.7
2024-02-26T08:06:00.919Z,6.6
2024-02-26T08:07:01.026Z,6.5
2024-02-26T08:08:00.694Z,6.2
2024-02-26T08:09:00.815Z,6.1
2024-02-26T08:10:00.737Z,6.2
2024-02-26T08:11:00.780Z,6.5
2024-02-26T08:12:00.790Z,6.7
2024-02-26T08:13:00.695Z,6.9
2024-02-26T08:14:00.695Z,6.9
2024-02-26T08:15:00.812Z,6.9
2024-02-26T08:16:00.720Z,7.4
2024-02-26T08:17:00.785Z,7.7
2024-02-26T08:18:01.008Z,7.7
2024-02-26T08:19:00.967Z,7.9
2024-02-26T08:20:00.788Z,7.8
2024-02-26T08:21:00.892Z,7.7
2024-02-26T08:22:03.608Z,7.1
2024-02-26T08:23:00.728Z,7.2
2024-02-26T08:24:00.884Z,7.1
2024-02-26T08:25:00.705Z,7.1
2024-02-26T08:26:00.695Z,7.0
2024-02-26T08:27:00.776Z,6.8
2024-02-26T08:28:00.747Z,6.7
2024-02-26T08:29:00.755Z,6.7
2024-02-26T08:30:00.785Z,6.3
2024-02-26T08:31:00.721Z,6.4
2024-02-26T08:32:00.725Z,6.7
2024-02-26T08:33:00.909Z,7.1
2024-02-26T08:34:01.074Z,7.0
2024-02-26T08:35:00.970Z,6.9
2024-02-26T08:36:00.983Z,6.4
2024-02-26T08:37:00.689Z,6.6
2024-02-26T08:38:00.700Z,6.5
2024-02-26T08:39:00.758Z,6.7
2024-02-26T08:40:04.923Z,6.6
2024-02-26T08:41:00.713Z,6.6
2024-02-26T08:42:00.910Z,6.6
2024-02-26T08:43:00.792Z,6.7
2024-02-26T08:44:00.718Z,6.5
2024-02-26T08:45:00.896Z,7.0
2024-02-26T08:46:00.804Z,7.1
2024-02-26T08:47:00.749Z,6.8
2024-02-26T08:48:01.139Z,6.7
2024-02-26T08:49:00.874Z,6.7
2024-02-26T08:50:00.812Z,6.3
2024-02-26T08:51:00.727Z,6.3
2024-02-26T08:52:00.811Z,6.3
2024-02-26T08:53:00.707Z,6.1
2024-02-26T08:54:00.753Z,6.4
2024-02-26T08:55:00.806Z,6.4
2024-02-26T08:56:00.810Z,6.4
2024-02-26T08:57:00.878Z,6.2
2024-02-26T08:58:00.883Z,6.1
2024-02-26T08:59:00.688Z,6.4
2024-02-26T09:00:00.769Z,6.5
2024-02-26T09:01:00.721Z,6.6
2024-02-26T09:02:00.710Z,6.8
2024-02-26T09:03:03.990Z,6.9
2024-02-26T09:04:00.781Z,6.6
2024-02-26T09:05:00.741Z,6.9
2024-02-26T09:06:00.924Z,7.1
2024-02-26T09:07:00.751Z,6.8
2024-02-26T09:08:00.752Z,6.9
2024-02-26T09:09:02.031Z,7.0
2024-02-26T09:10:00.770Z,7.0
2024-02-26T09:11:00.723Z,6.5
2024-02-26T09:12:00.773Z,6.7
2024-02-26T09:13:00.760Z,6.3
2024-02-26T09:14:00.688Z,6.3
2024-02-26T09:15:00.883Z,6.6
2024-02-26T09:16:00.799Z,6.6
2024-02-26T09:17:00.692Z,6.4
2024-02-26T09:18:00.904Z,6.2
2024-02-26T09:19:00.816Z,6.0
2024-02-26T09:20:00.776Z,6.3
2024-02-26T09:21:00.984Z,6.7
2024-02-26T09:22:00.803Z,6.7
2024-02-26T09:23:00.725Z,6.7
2024-02-26T09:24:00.745Z,6.6
2024-02-26T09:25:00.710Z,6.6
2024-02-26T09:26:00.711Z,6.4
2024-02-26T09:27:00.699Z,6.2
2024-02-26T09:28:00.772Z,6.3
2024-02-26T09:29:00.718Z,6.2
2024-02-26T09:30:00.811Z,6.2
2024-02-26T09:31:00.711Z,7.1
2024-02-26T09:32:00.736Z,6.9
2024-02-26T09:33:00.775Z,6.6
2024-02-26T09:34:02.775Z,6.6
2024-02-26T09:35:00.850Z,6.7
2024-02-26T09:36:00.905Z,6.2
2024-02-26T09:37:08.412Z,6.4
2024-02-26T09:38:00.719Z,6.0
2024-02-26T09:39:01.830Z,6.3
2024-02-26T09:40:00.768Z,6.0
2024-02-26T09:41:00.710Z,5.9
2024-02-26T09:42:01.268Z,5.8
2024-02-26T09:43:00.713Z,5.7
2024-02-26T09:44:01.055Z,5.7
2024-02-26T09:45:00.764Z,5.9
2024-02-26T09:46:03.234Z,5.7
2024-02-26T09:47:00.820Z,6.2
2024-02-26T09:48:00.839Z,6.5
2024-02-26T09:49:00.854Z,6.8
2024-02-26T09:50:00.723Z,6.7
2024-02-26T09:51:00.859Z,7.0
2024-02-26T09:52:00.692Z,7.1
2024-02-26T09:53:00.764Z,6.8
2024-02-26T09:54:00.836Z,6.9
2024-02-26T09:55:00.721Z,6.8
2024-02-26T09:56:00.716Z,6.8
2024-02-26T09:57:04.337Z,6.8
2024-02-26T09:58:00.780Z,6.9
2024-02-26T09:59:00.744Z,6.7
2024-02-26T10:00:00.732Z,6.5
2024-02-26T10:01:00.729Z,6.3
2024-02-26T10:02:00.714Z,6.3
2024-02-26T10:03:00.713Z,7.0
2024-02-26T10:04:00.815Z,7.2
2024-02-26T10:05:00.895Z,7.3
2024-02-26T10:06:00.883Z,6.9
2024-02-26T10:07:00.791Z,7.3
2024-02-26T10:08:00.766Z,7.4
2024-02-26T10:09:00.982Z,7.5
2024-02-26T10:10:00.767Z,7.1
2024-02-26T10:11:00.686Z,7.2
2024-02-26T10:12:00.908Z,7.3
2024-02-26T10:13:00.853Z,7.2
2024-02-26T10:14:00.718Z,7.0
2024-02-26T10:15:00.814Z,7.0
2024-02-26T10:16:00.721Z,6.8
2024-02-26T10:17:00.743Z,6.9
2024-02-26T10:18:00.889Z,6.6
2024-02-26T10:19:01.038Z,6.6
2024-02-26T10:20:00.893Z,6.5
2024-02-26T10:21:01.030Z,6.4
2024-02-26T10:22:00.768Z,6.1
2024-02-26T10:23:00.783Z,6.3
2024-02-26T10:24:00.725Z,6.4
2024-02-26T10:25:00.703Z,6.5
2024-02-26T10:26:00.684Z,6.4
2024-02-26T10:27:00.972Z,6.5
2024-02-26T10:28:00.716Z,6.0
2024-02-26T10:29:00.686Z,6.2
2024-02-26T10:30:00.738Z,6.2
2024-02-26T10:31:00.708Z,6.3
2024-02-26T10:32:00.720Z,6.6
2024-02-26T10:33:00.974Z,6.7
2024-02-26T10:34:03.743Z,6.7
2024-02-26T10:35:00.803Z,6.7
2024-02-26T10:36:00.786Z,6.5
2024-02-26T10:37:00.726Z,6.6
2024-02-26T10:38:00.691Z,6.9
2024-02-26T10:39:00.795Z,7.2
2024-02-26T10:40:00.709Z,6.8
2024-02-26T10:41:00.680Z,7.1
2024-02-26T10:42:00.804Z,7.1
2024-02-26T10:43:00.703Z,7.1
2024-02-26T10:44:00.748Z,7.3
2024-02-26T10:45:00.771Z,7.4
2024-02-26T10:46:00.717Z,8.0
2024-02-26T10:47:00.720Z,8.1
2024-02-26T10:48:00.855Z,8.2
2024-02-26T10:49:00.914Z,8.2
2024-02-26T10:50:00.738Z,8.4
2024-02-26T10:51:00.747Z,8.2
2024-02-26T10:52:00.850Z,8.0
2024-02-26T10:53:00.699Z,8.0
2024-02-26T10:54:02.013Z,8.3
2024-02-26T10:55:01.271Z,8.4
2024-02-26T10:56:00.753Z,8.3
2024-02-26T10:57:00.854Z,8.5
2024-02-26T10:58:00.830Z,8.6
2024-02-26T10:59:00.689Z,8.8
2024-02-26T11:00:00.789Z,9.2
2024-02-26T11:01:01.322Z,9.4
2024-02-26T11:02:00.713Z,9.5
2024-02-26T11:03:00.762Z,10.0
2024-02-26T11:04:00.849Z,10.3
2024-02-26T11:05:00.709Z,10.2
2024-02-26T11:06:00.820Z,10.3
2024-02-26T11:07:00.884Z,10.4
2024-02-26T11:08:00.694Z,10.5
2024-02-26T11:09:00.788Z,10.8
2024-02-26T11:10:00.745Z,10.6
2024-02-26T11:11:00.722Z,10.9
2024-02-26T11:12:00.874Z,11.0
2024-02-26T11:13:00.853Z,10.9
2024-02-26T11:14:00.732Z,10.7
2024-02-26T11:15:00.799Z,10.8
2024-02-26T11:16:00.725Z,10.9
2024-02-26T11:17:00.721Z,11.4
2024-02-26T11:18:00.843Z,11.4
2024-02-26T11:19:00.847Z,11.6
2024-02-26T11:20:00.789Z,11.8
2024-02-26T11:21:00.740Z,11.8
2024-02-26T11:22:11.835Z,11.9
2024-02-26T11:23:00.719Z,12.0
2024-02-26T11:24:00.738Z,12.4
2024-02-26T11:25:00.731Z,12.4
2024-02-26T11:26:00.738Z,12.6
2024-02-26T11:27:00.970Z,12.8
2024-02-26T11:28:00.899Z,12.7
2024-02-26T11:29:00.707Z,13.0
2024-02-26T11:30:01.014Z,13.2
2024-02-26T11:31:00.686Z,13.5
2024-02-26T11:32:00.782Z,13.7
2024-02-26T11:33:00.902Z,13.8
2024-02-26T11:34:01.096Z,13.8
2024-02-26T11:35:00.983Z,14.2
2024-02-26T11:36:00.771Z,14.6
2024-02-26T11:37:00.755Z,14.8
2024-02-26T11:38:00.787Z,15.2
2024-02-26T11:39:00.760Z,15.3
2024-02-26T11:40:00.815Z,15.4
2024-02-26T11:41:00.708Z,15.6
2024-02-26T11:42:00.773Z,15.9
2024-02-26T11:43:00.709Z,16.0
2024-02-26T11:44:00.710Z,16.4
2024-02-26T11:45:00.748Z,16.9
2024-02-26T11:46:00.787Z,16.9
2024-02-26T11:47:00.719Z,17.2
2024-02-26T11:48:00.797Z,16.7
2024-02-26T11:49:00.870Z,16.6
2024-02-26T11:50:00.859Z,16.8
2024-02-26T11:51:00.788Z,16.8
2024-02-26T11:52:00.721Z,16.7
2024-02-26T11:53:00.692Z,16.9
2024-02-26T11:54:00.817Z,16.8
2024-02-26T11:55:00.715Z,16.7
2024-02-26T11:56:00.720Z,17.1
2024-02-26T11:57:00.812Z,16.8
2024-02-26T11:58:00.729Z,17.0
2024-02-26T11:59:00.745Z,16.7
2024-02-26T12:00:00.798Z,16.6
2024-02-26T12:01:00.713Z,16.7
2024-02-26T12:02:03.152Z,16.7
2024-02-26T12:03:00.805Z,16.8
2024-02-26T12:04:00.714Z,16.6
2024-02-26T12:05:00.817Z,17.0
2024-02-26T12:06:00.890Z,16.9
2024-02-26T12:07:00.832Z,16.7
2024-02-26T12:08:00.796Z,16.6
2024-02-26T12:09:00.772Z,16.5
2024-02-26T12:10:00.735Z,16.7
2024-02-26T12:11:00.756Z,16.8
2024-02-26T12:12:00.847Z,17.0
2024-02-26T12:13:00.782Z,17.4
2024-02-26T12:14:00.851Z,17.5
2024-02-26T12:15:00.834Z,17.8
2024-02-26T12:16:01.328Z,17.5
2024-02-26T12:17:00.697Z,17.5
2024-02-26T12:18:00.797Z,17.9
2024-02-26T12:19:00.849Z,18.2
2024-02-26T12:20:00.974Z,18.1
2024-02-26T12:21:00.774Z,17.7
2024-02-26T12:22:00.770Z,17.5
2024-02-26T12:23:00.704Z,17.8
2024-02-26T12:24:00.871Z,17.8
2024-02-26T12:25:00.749Z,17.8
2024-02-26T12:26:00.705Z,17.8
2024-02-26T12:27:00.743Z,17.8
2024-02-26T12:28:00.793Z,18.0
2024-02-26T12:29:00.693Z,18.3
2024-02-26T12:30:00.761Z,18.1
2024-02-26T12:31:01.300Z,17.8
2024-02-26T12:32:00.710Z,17.9
2024-02-26T12:33:00.886Z,18.2
2024-02-26T12:34:01.041Z,18.3
2024-02-26T12:35:00.803Z,18.3
2024-02-26T12:36:00.759Z,18.3
2024-02-26T12:37:00.708Z,18.4
2024-02-26T12:38:00.712Z,18.4
2024-02-26T12:39:00.819Z,18.2
2024-02-26T12:40:00.782Z,18.2
2024-02-26T12:41:00.721Z,18.4
2024-02-26T12:42:01.210Z,18.5
2024-02-26T12:43:00.714Z,18.6
2024-02-26T12:44:00.726Z,18.7
2024-02-26T12:45:00.808Z,18.9
2024-02-26T12:46:00.756Z,18.7
2024-02-26T12:47:00.736Z,18.9
2024-02-26T12:48:00.866Z,19.1
2024-02-26T12:49:01.252Z,19.3
2024-02-26T12:50:00.847Z,19.4
2024-02-26T12:51:00.717Z,19.9
2024-02-26T12:52:00.766Z,20.2
2024-02-26T12:53:00.790Z,20.9
2024-02-26T12:54:00.871Z,20.1
2024-02-26T12:55:00.755Z,20.6
2024-02-26T12:56:00.697Z,20.0
2024-02-26T12:57:00.752Z,19.9
2024-02-26T12:58:00.752Z,20.4
2024-02-26T12:59:00.694Z,20.2
2024-02-26T13:00:00.738Z,20.8
2024-02-26T13:01:00.705Z,20.2
2024-02-26T13:02:00.787Z,20.3
2024-02-26T13:03:00.719Z,20.5
2024-02-26T13:04:00.780Z,20.9
2024-02-26T13:05:00.707Z,20.7
2024-02-26T13:06:00.809Z,21.2
2024-02-26T13:07:00.737Z,21.3
2024-02-26T13:08:00.789Z,21.2
2024-02-26T13:09:00.941Z,21.5
2024-02-26T13:10:00.688Z,21.9
2024-02-26T13:11:00.748Z,21.9
2024-02-26T13:12:00.763Z,21.9
2024-02-26T13:13:00.716Z,22.2
2024-02-26T13:14:00.823Z,22.1
2024-02-26T13:15:00.769Z,22.0
2024-02-26T13:16:00.697Z,22.1
2024-02-26T13:17:00.697Z,21.8
2024-02-26T13:18:00.797Z,21.7
2024-02-26T13:19:00.866Z,21.5
2024-02-26T13:20:01.052Z,21.5
2024-02-26T13:21:00.762Z,21.4
2024-02-26T13:22:00.694Z,21.6
2024-02-26T13:23:00.708Z,21.8
2024-02-26T13:24:00.924Z,22.0
2024-02-26T13:25:00.694Z,21.9
2024-02-26T13:26:00.787Z,21.9
2024-02-26T13:27:00.704Z,21.9
2024-02-26T13:28:00.744Z,21.9
2024-02-26T13:29:00.709Z,21.7
2024-02-26T13:30:00.756Z,21.7
2024-02-26T13:31:00.758Z,21.8